3 – eServices

Baggage tracing
Cargo tracing
Weather
  • METAR

    EFMA 071150Z AUTO 36011KT 330V030 9999 -RA OVC006 02/01 Q1002

    EFTU 071150Z AUTO 23005KT 9999 OVC010 05/02 Q1000

    EFHK 071150Z 18009KT 9999 VCSH FEW006 BKN009 FEW020CB 06/04 Q1001 BECMG BKN015

    ESSA 071150Z 01015KT 9999 -SHRA BKN018 OVC044 03/M00 Q1004

    ESSB 071150Z 33008KT 300V020 9999 BKN023 BKN047 05/M01 Q1004

  • TAF n/a

Flightradar24